createdAt,value
2022-08-03T00:02:18.657Z,68.70
2022-08-03T00:04:45.968Z,69.00
2022-08-03T00:07:13.136Z,69.20
2022-08-03T00:09:40.314Z,68.80
2022-08-03T00:12:07.731Z,68.70
2022-08-03T00:14:35.029Z,69.20
2022-08-03T00:17:02.321Z,69.20
2022-08-03T00:19:29.785Z,69.40
2022-08-03T00:21:57.030Z,69.60
2022-08-03T00:24:24.173Z,69.90
2022-08-03T00:26:52.356Z,69.80
2022-08-03T00:29:19.521Z,69.10
2022-08-03T00:31:52.749Z,68.80
2022-08-03T00:34:36.465Z,69.50
2022-08-03T00:37:14.936Z,70.10
2022-08-03T00:39:45.915Z,69.50
2022-08-03T00:42:14.060Z,70.10
2022-08-03T00:44:44.526Z,70.00
2022-08-03T00:47:12.722Z,69.90
2022-08-03T00:49:41.727Z,70.10
2022-08-03T00:52:11.405Z,70.30
2022-08-03T00:54:39.817Z,70.00
2022-08-03T00:57:08.014Z,70.80
2022-08-03T00:59:35.289Z,71.20
2022-08-03T01:02:02.737Z,71.30
2022-08-03T01:04:29.909Z,71.50
2022-08-03T01:07:03.004Z,71.50
2022-08-03T01:10:24.890Z,71.50
2022-08-03T01:14:03.517Z,71.60
2022-08-03T01:17:02.285Z,72.20
2022-08-03T01:19:45.493Z,71.40
2022-08-03T01:22:58.933Z,71.80
2022-08-03T01:26:02.733Z,72.40
2022-08-03T01:29:35.138Z,72.10
2022-08-03T01:32:58.669Z,72.30
2022-08-03T01:35:28.012Z,72.70
2022-08-03T01:38:02.782Z,72.00
2022-08-03T01:40:34.445Z,72.30
2022-08-03T01:43:08.088Z,72.40
2022-08-03T01:45:37.536Z,72.80
2022-08-03T01:48:07.241Z,72.50
2022-08-03T01:50:35.607Z,72.70
2022-08-03T01:53:03.721Z,72.30
2022-08-03T01:55:34.592Z,72.00
2022-08-03T01:58:06.773Z,72.60
2022-08-03T02:00:37.773Z,72.60
2022-08-03T02:03:07.964Z,72.00
2022-08-03T02:05:36.659Z,72.60
2022-08-03T02:08:07.187Z,73.10
2022-08-03T02:10:37.754Z,73.20
2022-08-03T02:13:08.597Z,73.20
2022-08-03T02:15:39.281Z,73.70
2022-08-03T02:18:10.304Z,73.50
2022-08-03T02:20:39.737Z,73.30
2022-08-03T02:23:07.426Z,73.70
2022-08-03T02:25:43.102Z,74.00
2022-08-03T02:28:17.380Z,74.30
2022-08-03T02:30:51.881Z,74.50
2022-08-03T02:33:31.728Z,73.90
2022-08-03T02:36:02.165Z,73.30
2022-08-03T02:38:36.090Z,73.60
2022-08-03T02:41:09.252Z,74.30
2022-08-03T02:44:05.902Z,74.70
2022-08-03T02:46:34.115Z,74.90
2022-08-03T02:49:40.830Z,74.70
2022-08-03T02:51:54.833Z,74.90
2022-08-03T02:54:26.533Z,75.20
2022-08-03T02:56:57.135Z,75.40
2022-08-03T02:59:25.733Z,76.10
2022-08-03T03:01:55.420Z,75.40
2022-08-03T03:04:24.986Z,75.80
2022-08-03T03:07:01.794Z,76.00
2022-08-03T03:09:40.207Z,76.00
2022-08-03T03:12:15.834Z,76.20
2022-08-03T03:14:43.388Z,76.20
2022-08-03T03:17:13.318Z,75.60
2022-08-03T03:19:41.789Z,75.70
2022-08-03T03:22:09.771Z,75.90
2022-08-03T03:24:38.076Z,76.50
2022-08-03T03:27:05.887Z,76.50
2022-08-03T03:29:39.306Z,76.30
2022-08-03T03:32:08.402Z,76.70
2022-08-03T03:34:37.621Z,76.70
2022-08-03T03:37:05.478Z,76.70
2022-08-03T03:39:32.786Z,76.80
2022-08-03T03:42:01.682Z,76.80
2022-08-03T03:44:31.287Z,76.30
2022-08-03T03:46:58.894Z,75.40
2022-08-03T03:49:27.006Z,74.90
2022-08-03T03:51:55.722Z,75.50
2022-08-03T03:54:25.543Z,76.30
2022-08-03T03:57:15.077Z,76.40
2022-08-03T03:59:43.846Z,76.60
2022-08-03T04:02:12.560Z,77.20
2022-08-03T04:04:59.442Z,77.50
2022-08-03T04:07:46.839Z,76.50
2022-08-03T04:10:41.443Z,76.40
2022-08-03T04:13:15.920Z,77.40
2022-08-03T04:15:44.382Z,78.10
2022-08-03T04:18:16.278Z,77.50
2022-08-03T04:20:48.880Z,76.50
2022-08-03T04:23:21.395Z,75.90
2022-08-03T04:25:51.757Z,76.50
2022-08-03T04:28:29.497Z,77.80
2022-08-03T04:31:04.427Z,78.30
2022-08-03T04:33:38.925Z,78.20
2022-08-03T04:36:09.753Z,79.10
2022-08-03T04:39:06.942Z,79.60
2022-08-03T04:42:07.443Z,79.80
2022-08-03T04:44:28.175Z,78.80
2022-08-03T04:46:57.855Z,77.90
2022-08-03T04:49:26.737Z,78.60
2022-08-03T04:51:54.143Z,79.30
2022-08-03T04:54:21.363Z,80.50
2022-08-03T04:56:48.632Z,82.00
2022-08-03T04:59:17.811Z,82.40
2022-08-03T05:01:45.576Z,82.30
2022-08-03T05:04:12.832Z,82.00
2022-08-03T05:06:48.239Z,81.70
2022-08-03T05:09:49.871Z,81.70
2022-08-03T05:12:10.721Z,81.70
2022-08-03T05:14:38.947Z,81.80
2022-08-03T05:17:06.719Z,81.60
2022-08-03T05:19:33.993Z,81.50
2022-08-03T05:22:01.477Z,81.10
2022-08-03T05:24:28.652Z,80.70
2022-08-03T05:26:55.783Z,80.70
2022-08-03T05:29:22.918Z,80.50
2022-08-03T05:31:50.193Z,80.60
2022-08-03T05:34:17.526Z,80.30
2022-08-03T05:36:44.644Z,79.80
2022-08-03T05:39:11.744Z,79.60
2022-08-03T05:41:39.029Z,80.10
2022-08-03T05:44:06.208Z,79.50
2022-08-03T05:46:33.327Z,79.70
2022-08-03T05:49:00.533Z,79.40
2022-08-03T05:51:28.970Z,79.20
2022-08-03T05:53:56.184Z,79.60
2022-08-03T05:56:27.901Z,79.40
2022-08-03T05:58:55.272Z,79.30
2022-08-03T06:01:22.692Z,79.40
2022-08-03T06:03:50.917Z,79.30
2022-08-03T06:07:04.176Z,79.00
2022-08-03T06:10:33.612Z,78.70
2022-08-03T06:12:18.897Z,78.60
2022-08-03T06:14:46.405Z,79.10
2022-08-03T06:17:13.609Z,78.30
2022-08-03T06:19:42.567Z,78.10
2022-08-03T06:22:09.716Z,78.20
2022-08-03T06:24:36.898Z,78.20
2022-08-03T06:27:04.971Z,77.90
2022-08-03T06:29:32.091Z,78.00
2022-08-03T06:31:59.195Z,78.10
2022-08-03T06:34:33.789Z,78.10
2022-08-03T06:37:02.628Z,78.20
2022-08-03T06:39:30.036Z,78.00
2022-08-03T06:42:03.222Z,77.90
2022-08-03T06:44:32.531Z,77.80
2022-08-03T06:46:59.852Z,77.50
2022-08-03T06:49:27.472Z,77.30
2022-08-03T06:52:03.427Z,77.20
2022-08-03T06:54:42.059Z,76.80
2022-08-03T06:57:11.661Z,76.40
2022-08-03T07:00:06.145Z,76.50
2022-08-03T07:02:28.209Z,76.60
2022-08-03T07:04:55.864Z,76.40
2022-08-03T07:07:22.983Z,75.70
2022-08-03T07:09:56.598Z,75.70
2022-08-03T07:12:29.043Z,75.80
2022-08-03T07:15:01.382Z,76.00
2022-08-03T07:17:33.202Z,75.80
2022-08-03T07:20:02.081Z,75.40
2022-08-03T07:22:29.547Z,75.30
2022-08-03T07:24:57.688Z,75.40
2022-08-03T07:27:27.026Z,75.40
2022-08-03T07:29:55.317Z,74.70
2022-08-03T07:32:22.889Z,73.40
2022-08-03T07:34:50.036Z,73.20
2022-08-03T07:37:17.326Z,72.50
2022-08-03T07:39:44.932Z,72.70
2022-08-03T07:42:12.091Z,72.70
2022-08-03T07:44:39.480Z,72.30
2022-08-03T07:47:06.866Z,72.50
2022-08-03T07:49:41.372Z,72.20
2022-08-03T07:52:28.349Z,71.80
2022-08-03T07:54:55.990Z,72.00
2022-08-03T07:57:23.182Z,71.80
2022-08-03T08:00:01.518Z,71.40
2022-08-03T08:02:39.633Z,70.50
2022-08-03T08:05:07.579Z,69.80
2022-08-03T08:07:34.857Z,69.90
2022-08-03T08:10:02.052Z,70.00
2022-08-03T08:12:29.212Z,69.70
2022-08-03T08:14:56.293Z,69.60
2022-08-03T08:17:23.413Z,69.40
2022-08-03T08:19:51.567Z,69.50
2022-08-03T08:22:28.072Z,69.20
2022-08-03T08:24:58.567Z,69.20
2022-08-03T08:27:26.545Z,69.40
2022-08-03T08:29:55.741Z,68.90
2022-08-03T08:32:24.729Z,68.20
2022-08-03T08:34:51.913Z,67.90
2022-08-03T08:37:19.183Z,66.30
2022-08-03T08:39:46.332Z,64.70
2022-08-03T08:42:13.607Z,65.00
2022-08-03T08:44:40.881Z,63.30
2022-08-03T08:47:09.824Z,62.70
2022-08-03T08:49:46.476Z,62.30
2022-08-03T08:52:32.110Z,62.10
2022-08-03T08:55:05.533Z,62.10
2022-08-03T08:57:43.473Z,60.80
2022-08-03T09:00:15.441Z,59.00
2022-08-03T09:02:45.127Z,58.80
2022-08-03T09:05:18.841Z,58.20
2022-08-03T09:07:47.731Z,57.10
2022-08-03T09:10:21.654Z,56.50
2022-08-03T09:12:52.432Z,55.50
2022-08-03T09:15:31.373Z,55.50
2022-08-03T09:18:01.558Z,55.00
2022-08-03T09:20:35.222Z,54.50
2022-08-03T09:23:44.778Z,52.00
2022-08-03T09:25:59.806Z,51.40
2022-08-03T09:28:58.848Z,50.50
2022-08-03T09:31:45.762Z,49.70
2022-08-03T09:34:16.969Z,50.30
2022-08-03T09:36:50.793Z,50.50
2022-08-03T09:39:40.665Z,51.30
2022-08-03T09:42:18.558Z,52.00
2022-08-03T09:44:51.497Z,51.50
2022-08-03T09:47:34.093Z,52.00
2022-08-03T09:50:05.898Z,52.20
2022-08-03T09:52:52.349Z,51.90
2022-08-03T09:56:32.714Z,52.30
2022-08-03T09:58:15.202Z,51.70
2022-08-03T10:01:01.879Z,52.40
2022-08-03T10:03:32.863Z,52.10
2022-08-03T10:06:15.257Z,51.80
2022-08-03T10:08:42.579Z,51.40
2022-08-03T10:11:09.884Z,50.70
2022-08-03T10:13:38.466Z,50.50
2022-08-03T10:16:24.150Z,50.10
2022-08-03T10:18:52.530Z,48.60
2022-08-03T10:21:21.427Z,49.00
2022-08-03T10:23:51.143Z,46.30
2022-08-03T10:26:25.307Z,45.50
2022-08-03T10:28:55.089Z,45.10
2022-08-03T10:31:24.276Z,45.50
2022-08-03T10:33:55.846Z,45.60
2022-08-03T10:36:27.477Z,46.20
2022-08-03T10:38:57.135Z,47.00
2022-08-03T10:41:32.705Z,47.20
2022-08-03T10:44:19.347Z,45.80
2022-08-03T10:46:50.425Z,45.00
2022-08-03T10:49:34.722Z,45.20
2022-08-03T10:52:13.430Z,46.00
2022-08-03T10:55:11.169Z,45.70
2022-08-03T10:57:58.567Z,44.60
2022-08-03T11:00:30.535Z,43.20
2022-08-03T11:03:14.124Z,43.60
2022-08-03T11:05:49.465Z,42.80
2022-08-03T11:08:24.320Z,41.10
2022-08-03T11:10:57.899Z,42.30
2022-08-03T11:13:28.480Z,42.60
2022-08-03T11:16:00.094Z,40.80
2022-08-03T11:18:30.712Z,41.60
2022-08-03T11:21:00.512Z,42.10
2022-08-03T11:24:02.550Z,41.00
2022-08-03T11:26:34.102Z,39.80
2022-08-03T11:29:33.774Z,41.20
2022-08-03T11:32:00.977Z,42.00
2022-08-03T11:34:28.367Z,39.90
2022-08-03T11:37:23.334Z,41.00
2022-08-03T11:39:54.718Z,40.70
2022-08-03T11:42:25.617Z,40.00
2022-08-03T11:44:55.980Z,40.20
2022-08-03T11:47:27.078Z,39.10
2022-08-03T11:49:59.266Z,39.50
2022-08-03T11:52:28.868Z,39.50
2022-08-03T11:54:57.283Z,37.70
2022-08-03T11:59:17.805Z,38.40
2022-08-03T12:00:27.154Z,39.70
2022-08-03T12:03:16.233Z,37.50
2022-08-03T12:05:48.391Z,39.50
2022-08-03T12:08:33.371Z,41.00
2022-08-03T12:11:05.822Z,41.00
2022-08-03T12:14:33.013Z,36.30
2022-08-03T12:16:29.829Z,36.80
2022-08-03T12:19:03.972Z,37.10
2022-08-03T12:21:31.384Z,34.80
2022-08-03T12:24:05.372Z,34.40
2022-08-03T12:26:58.975Z,34.40
2022-08-03T12:29:27.314Z,34.50
2022-08-03T12:31:56.066Z,36.30
2022-08-03T12:34:23.845Z,36.80
2022-08-03T12:36:56.662Z,36.60
2022-08-03T12:39:26.696Z,34.40
2022-08-03T12:41:56.368Z,36.60
2022-08-03T12:44:35.338Z,33.10
2022-08-03T12:47:04.621Z,31.10
2022-08-03T12:49:46.833Z,31.30
2022-08-03T12:52:16.218Z,31.30
2022-08-03T12:54:54.007Z,33.10
2022-08-03T12:57:21.599Z,33.40
2022-08-03T12:59:53.335Z,32.30
2022-08-03T13:02:23.569Z,32.70
2022-08-03T13:04:54.015Z,34.00
2022-08-03T13:07:22.579Z,32.00
2022-08-03T13:09:53.453Z,32.90
2022-08-03T13:12:29.964Z,31.10
2022-08-03T13:14:59.743Z,30.30
2022-08-03T13:17:28.090Z,28.90
2022-08-03T13:19:56.523Z,29.60
2022-08-03T13:22:30.840Z,31.10
2022-08-03T13:24:58.295Z,31.40
2022-08-03T13:28:04.478Z,31.10
2022-08-03T13:30:24.178Z,31.30
2022-08-03T13:32:58.880Z,29.60
2022-08-03T13:35:26.346Z,27.00
2022-08-03T13:37:53.601Z,27.30
2022-08-03T13:40:23.625Z,27.70
2022-08-03T13:42:57.228Z,27.30
2022-08-03T13:45:24.880Z,25.60
2022-08-03T13:47:52.111Z,26.00
2022-08-03T13:50:19.384Z,26.50
2022-08-03T13:52:47.553Z,27.40
2022-08-03T13:55:14.784Z,25.70
2022-08-03T13:58:04.433Z,25.80
2022-08-03T14:00:29.743Z,25.60
2022-08-03T14:03:13.660Z,26.90
2022-08-03T14:05:45.178Z,25.30
2022-08-03T14:08:13.057Z,25.30
2022-08-03T14:10:44.814Z,26.00
2022-08-03T14:13:17.544Z,26.50
2022-08-03T14:15:50.320Z,26.00
2022-08-03T14:18:29.274Z,28.10
2022-08-03T14:21:06.436Z,29.40
2022-08-03T14:23:38.168Z,28.50
2022-08-03T14:26:07.567Z,25.50
2022-08-03T14:28:36.405Z,27.20
2022-08-03T14:31:04.709Z,26.40
2022-08-03T14:33:36.111Z,25.70
2022-08-03T14:36:03.903Z,26.70
2022-08-03T14:40:58.197Z,25.30
2022-08-03T14:56:05.231Z,26.40
2022-08-03T15:02:02.271Z,26.30
2022-08-03T15:06:58.586Z,25.70
2022-08-03T15:12:27.667Z,25.60
2022-08-03T15:15:03.988Z,25.30
2022-08-03T15:17:35.341Z,25.30
2022-08-03T15:20:28.905Z,26.10
2022-08-03T15:26:32.314Z,26.00
2022-08-03T15:31:09.521Z,27.90
2022-08-03T15:36:23.926Z,26.80
2022-08-03T15:38:52.618Z,25.60
2022-08-03T15:41:19.901Z,25.20
2022-08-03T15:44:02.628Z,25.00
2022-08-03T15:46:33.178Z,25.50
2022-08-03T15:51:26.433Z,26.50
2022-08-03T15:53:53.629Z,26.60
2022-08-03T15:56:20.823Z,27.30
2022-08-03T15:59:03.550Z,27.80
2022-08-03T16:01:35.269Z,25.80
2022-08-03T16:04:02.598Z,25.20
2022-08-03T16:06:35.831Z,24.90
2022-08-03T16:09:23.591Z,24.90
2022-08-03T16:11:53.936Z,25.30
2022-08-03T16:14:32.020Z,26.00
2022-08-03T16:17:04.138Z,26.90
2022-08-03T16:19:31.428Z,27.40
2022-08-03T16:21:58.616Z,25.70
2022-08-03T16:24:27.749Z,25.80
2022-08-03T16:26:56.463Z,26.00
2022-08-03T16:29:24.179Z,26.90
2022-08-03T16:31:52.790Z,26.70
2022-08-03T16:34:21.131Z,25.80
2022-08-03T16:36:48.646Z,26.60
2022-08-03T16:39:16.051Z,26.70
2022-08-03T16:41:54.042Z,26.90
2022-08-03T16:46:58.978Z,27.80
2022-08-03T16:49:54.627Z,28.20
2022-08-03T17:07:07.119Z,27.70
2022-08-03T17:09:38.904Z,28.50
2022-08-03T17:12:07.663Z,28.50
2022-08-03T17:14:39.202Z,28.10
2022-08-03T17:17:16.779Z,28.50
2022-08-03T17:19:47.411Z,28.40
2022-08-03T17:22:20.701Z,27.80
2022-08-03T17:24:54.249Z,27.80
2022-08-03T17:28:49.099Z,27.50
2022-08-03T17:30:19.021Z,28.00
2022-08-03T17:32:56.783Z,28.30
2022-08-03T17:35:34.409Z,28.50
2022-08-03T17:38:05.736Z,28.80
2022-08-03T17:40:34.990Z,29.20
2022-08-03T17:44:13.053Z,30.00
2022-08-03T17:45:54.994Z,30.00
2022-08-03T17:51:50.009Z,29.50
2022-08-03T17:55:50.647Z,29.40
2022-08-03T17:58:01.509Z,29.70
2022-08-03T18:00:51.771Z,29.70
2022-08-03T18:03:58.106Z,29.90
2022-08-03T18:06:37.979Z,30.70
2022-08-03T18:10:04.538Z,31.50
2022-08-03T18:15:20.921Z,32.50
2022-08-03T18:18:01.984Z,32.30
2022-08-03T18:20:40.885Z,32.80
2022-08-03T18:32:00.300Z,34.60
2022-08-03T18:36:54.790Z,35.20
2022-08-03T18:39:23.292Z,35.70
2022-08-03T18:41:52.004Z,36.20
2022-08-03T18:50:41.243Z,36.70
2022-08-03T18:54:02.470Z,36.60
2022-08-03T18:56:14.343Z,36.60
2022-08-03T19:04:45.192Z,36.20
2022-08-03T19:07:35.964Z,36.40
2022-08-03T19:13:05.011Z,36.50
2022-08-03T19:15:51.227Z,36.60
2022-08-03T19:18:34.949Z,36.70
2022-08-03T19:21:12.847Z,36.80
2022-08-03T19:26:43.332Z,37.20
2022-08-03T19:29:18.654Z,37.30
2022-08-03T19:31:58.680Z,37.50
2022-08-03T19:34:29.932Z,37.70
2022-08-03T19:36:59.305Z,37.90
2022-08-03T19:39:27.180Z,38.20
2022-08-03T19:45:11.410Z,38.60
2022-08-03T19:48:09.865Z,38.80
2022-08-03T19:50:44.489Z,39.00
2022-08-03T19:53:13.416Z,39.10
2022-08-03T19:55:48.885Z,39.30
2022-08-03T19:58:24.529Z,39.70
2022-08-03T20:00:56.132Z,39.70
2022-08-03T20:03:27.716Z,40.20
2022-08-03T20:06:12.552Z,40.60
2022-08-03T20:08:44.578Z,40.70
2022-08-03T20:11:11.956Z,40.80
2022-08-03T20:13:39.432Z,40.90
2022-08-03T20:16:06.852Z,41.00
2022-08-03T20:18:39.436Z,41.10
2022-08-03T20:21:15.847Z,41.30
2022-08-03T20:24:01.931Z,42.00
2022-08-03T20:26:32.221Z,42.10
2022-08-03T20:29:10.595Z,42.50
2022-08-03T20:31:37.992Z,42.90
2022-08-03T20:34:07.171Z,43.10
2022-08-03T20:36:36.357Z,43.20
2022-08-03T20:39:07.530Z,43.70
2022-08-03T20:41:35.517Z,43.80
2022-08-03T20:44:04.575Z,44.80
2022-08-03T20:46:41.670Z,44.80
2022-08-03T20:49:23.006Z,44.70
2022-08-03T20:51:53.302Z,45.00
2022-08-03T20:54:29.555Z,45.40
2022-08-03T20:57:04.093Z,45.40
2022-08-03T20:59:50.675Z,45.50
2022-08-03T21:02:29.959Z,45.70
2022-08-03T21:05:08.315Z,45.90
2022-08-03T21:08:05.061Z,45.80
2022-08-03T21:10:39.004Z,47.00
2022-08-03T21:13:02.695Z,38.40
2022-08-03T21:13:03.990Z,29.40
2022-08-03T21:13:18.839Z,47.50
2022-08-03T21:16:06.064Z,47.70
2022-08-03T21:19:03.346Z,47.70
2022-08-03T21:21:32.996Z,47.80
2022-08-03T21:24:03.747Z,47.90
2022-08-03T21:26:38.265Z,47.60
2022-08-03T21:29:05.895Z,47.50
2022-08-03T21:31:33.331Z,48.40
2022-08-03T21:34:05.477Z,48.90
2022-08-03T21:36:36.159Z,49.60
2022-08-03T21:39:08.362Z,49.50
2022-08-03T21:41:38.950Z,49.80
2022-08-03T21:44:07.532Z,50.10
2022-08-03T21:46:39.132Z,50.10
2022-08-03T21:50:05.660Z,50.90
2022-08-03T21:52:00.581Z,51.00
2022-08-03T21:54:35.757Z,52.00
2022-08-03T21:57:12.747Z,51.80
2022-08-03T21:59:52.818Z,51.70
2022-08-03T22:02:26.494Z,52.70
2022-08-03T22:04:56.210Z,52.40
2022-08-03T22:07:27.069Z,51.90
2022-08-03T22:10:00.016Z,51.80
2022-08-03T22:12:30.941Z,52.60
2022-08-03T22:15:02.079Z,53.00
2022-08-03T22:17:54.593Z,53.30
2022-08-03T22:20:21.719Z,53.60
2022-08-03T22:22:55.861Z,53.30
2022-08-03T22:25:36.399Z,53.30
2022-08-03T22:28:09.742Z,53.70
2022-08-03T22:30:38.275Z,54.60
2022-08-03T22:33:11.139Z,55.00
2022-08-03T22:35:50.925Z,55.30
2022-08-03T22:38:19.291Z,55.20
2022-08-03T22:40:50.989Z,55.70
2022-08-03T22:43:25.750Z,55.90
2022-08-03T22:46:09.463Z,56.10
2022-08-03T22:48:41.281Z,56.30
2022-08-03T22:51:10.032Z,55.60
2022-08-03T22:53:39.368Z,56.20
2022-08-03T22:56:08.355Z,56.80
2022-08-03T22:58:35.521Z,57.20
2022-08-03T23:01:11.280Z,57.70
2022-08-03T23:03:58.744Z,58.10
2022-08-03T23:06:34.957Z,58.90
2022-08-03T23:09:11.784Z,59.40
2022-08-03T23:11:45.390Z,59.90
2022-08-03T23:14:16.473Z,59.90
2022-08-03T23:16:46.158Z,59.10
2022-08-03T23:19:17.191Z,58.30
2022-08-03T23:22:02.976Z,58.70
2022-08-03T23:24:35.979Z,59.20
2022-08-03T23:27:08.167Z,59.30
2022-08-03T23:29:42.312Z,59.10
2022-08-03T23:32:13.005Z,58.40
2022-08-03T23:35:00.629Z,58.30
2022-08-03T23:37:27.837Z,58.70
2022-08-03T23:39:57.244Z,59.00
2022-08-03T23:42:24.520Z,58.50
2022-08-03T23:45:06.019Z,58.20
2022-08-03T23:47:47.074Z,58.00
2022-08-03T23:50:15.897Z,58.50
2022-08-03T23:53:05.173Z,59.30
2022-08-03T23:56:18.109Z,59.20
2022-08-03T23:59:18.146Z,60.00
